createdAt,value
2022-08-28T00:04:18.294Z,24.20
2022-08-28T00:09:20.869Z,23.90
2022-08-28T00:14:23.400Z,23.90
2022-08-28T00:19:25.769Z,24.00
2022-08-28T00:24:27.892Z,23.90
2022-08-28T00:29:32.044Z,23.60
2022-08-28T00:34:34.665Z,23.90
2022-08-28T00:39:36.851Z,23.60
2022-08-28T00:44:40.192Z,23.90
2022-08-28T00:49:50.807Z,23.80
2022-08-28T00:55:10.119Z,23.80
2022-08-28T01:00:19.581Z,23.70
2022-08-28T01:05:22.479Z,23.80
2022-08-28T01:10:28.151Z,23.80
2022-08-28T01:15:35.868Z,23.70
2022-08-28T01:20:46.998Z,24.10
2022-08-28T01:25:49.311Z,23.30
2022-08-28T01:30:52.024Z,23.80
2022-08-28T01:35:54.439Z,23.80
2022-08-28T01:40:57.903Z,23.80
2022-08-28T01:46:04.007Z,23.90
2022-08-28T01:51:14.436Z,23.70
2022-08-28T01:56:17.882Z,23.70
2022-08-28T02:01:21.975Z,23.60
2022-08-28T02:06:25.748Z,23.20
2022-08-28T02:11:29.652Z,23.60
2022-08-28T02:16:31.808Z,23.30
2022-08-28T02:21:35.699Z,23.50
2022-08-28T02:26:38.497Z,23.50
2022-08-28T02:31:40.718Z,23.50
2022-08-28T02:36:43.208Z,23.30
2022-08-28T02:41:45.383Z,23.20
2022-08-28T02:46:47.560Z,23.40
2022-08-28T02:51:50.799Z,23.40
2022-08-28T02:56:55.314Z,23.40
2022-08-28T03:01:57.519Z,23.40
2022-08-28T03:06:59.697Z,23.30
2022-08-28T03:12:02.003Z,23.30
2022-08-28T03:17:04.370Z,23.30
2022-08-28T03:22:06.609Z,23.30
2022-08-28T03:27:08.938Z,23.30
2022-08-28T03:32:11.043Z,23.20
2022-08-28T03:37:13.573Z,23.30
2022-08-28T03:42:16.543Z,23.30
2022-08-28T03:47:18.763Z,23.20
2022-08-28T03:52:24.667Z,23.20
2022-08-28T03:57:27.142Z,23.10
2022-08-28T04:02:29.367Z,23.00
2022-08-28T04:07:31.557Z,23.20
2022-08-28T04:12:35.410Z,23.00
2022-08-28T04:17:39.552Z,22.80
2022-08-28T04:22:42.623Z,23.00
2022-08-28T04:27:48.663Z,22.60
2022-08-28T04:32:50.948Z,22.90
2022-08-28T04:37:54.739Z,22.90
2022-08-28T04:42:58.673Z,22.90
2022-08-28T04:48:03.201Z,23.10
2022-08-28T04:53:08.188Z,22.60
2022-08-28T04:58:10.239Z,22.80
2022-08-28T05:03:13.658Z,22.80
2022-08-28T05:08:17.800Z,22.80
2022-08-28T05:13:20.673Z,22.70
2022-08-28T05:18:23.772Z,22.80
2022-08-28T05:23:26.493Z,22.80
2022-08-28T05:28:29.171Z,22.80
2022-08-28T05:33:31.463Z,22.90
2022-08-28T05:38:34.861Z,22.90
2022-08-28T05:43:37.676Z,23.00
2022-08-28T05:48:40.687Z,23.00
2022-08-28T05:53:44.405Z,22.80
2022-08-28T05:58:46.848Z,23.10
2022-08-28T06:03:58.072Z,23.10
2022-08-28T06:09:03.983Z,23.10
2022-08-28T06:14:12.229Z,23.30
2022-08-28T06:19:14.785Z,23.40
2022-08-28T06:24:17.596Z,23.10
2022-08-28T06:29:21.212Z,23.50
2022-08-28T06:34:24.808Z,23.60
2022-08-28T06:39:27.078Z,23.10
2022-08-28T06:44:31.996Z,23.60
2022-08-28T06:49:35.690Z,23.60
2022-08-28T06:54:37.874Z,24.00
2022-08-28T06:59:40.373Z,23.70
2022-08-28T07:04:42.478Z,24.00
2022-08-28T07:09:44.929Z,24.20
2022-08-28T07:14:47.161Z,23.80
2022-08-28T07:19:49.528Z,24.10
2022-08-28T07:24:52.609Z,23.90
2022-08-28T07:29:54.791Z,24.20
2022-08-28T07:34:57.082Z,24.30
2022-08-28T07:39:59.308Z,24.40
2022-08-28T07:45:02.124Z,24.30
2022-08-28T07:50:04.736Z,24.40
2022-08-28T07:55:08.725Z,24.40
2022-08-28T08:00:13.066Z,24.60
2022-08-28T08:05:15.504Z,24.60
2022-08-28T08:10:19.892Z,25.00
2022-08-28T08:15:23.145Z,25.10
2022-08-28T08:20:25.458Z,25.30
2022-08-28T08:25:27.830Z,25.10
2022-08-28T08:30:32.392Z,25.30
2022-08-28T08:35:34.741Z,25.40
2022-08-28T08:40:36.948Z,25.50
2022-08-28T08:45:43.172Z,25.70
2022-08-28T08:50:45.472Z,25.90
2022-08-28T08:55:52.619Z,26.30
2022-08-28T09:01:20.165Z,26.60
2022-08-28T09:06:50.466Z,27.00
2022-08-28T09:12:14.811Z,27.30
2022-08-28T09:17:19.941Z,27.50
2022-08-28T09:22:22.755Z,27.70
2022-08-28T09:27:34.782Z,27.80
2022-08-28T09:32:57.933Z,27.80
2022-08-28T09:38:21.916Z,27.80
2022-08-28T09:43:31.458Z,27.70
2022-08-28T09:48:38.709Z,27.80
2022-08-28T09:54:00.762Z,27.80
2022-08-28T09:59:10.613Z,28.30
2022-08-28T10:09:36.702Z,28.20
2022-08-28T10:14:58.182Z,28.70
2022-08-28T10:20:07.777Z,28.70
2022-08-28T10:25:15.621Z,29.00
2022-08-28T10:30:22.910Z,29.10
2022-08-28T10:35:36.793Z,29.10
2022-08-28T10:40:57.399Z,29.20
2022-08-28T10:46:09.428Z,29.30
2022-08-28T10:51:35.487Z,29.30
2022-08-28T10:56:43.791Z,29.30
2022-08-28T11:01:47.290Z,29.40
2022-08-28T11:07:02.427Z,29.50
2022-08-28T11:12:10.627Z,29.70
2022-08-28T11:17:22.015Z,29.90
2022-08-28T11:22:42.628Z,30.00
2022-08-28T11:28:17.968Z,30.00
2022-08-28T11:33:41.554Z,29.90
2022-08-28T11:38:43.688Z,30.20
2022-08-28T11:43:46.681Z,30.30
2022-08-28T11:48:51.999Z,30.60
2022-08-28T11:54:03.525Z,30.80
2022-08-28T11:59:17.495Z,30.90
2022-08-28T12:04:24.390Z,31.20
2022-08-28T12:09:26.558Z,31.30
2022-08-28T12:14:28.650Z,31.40
2022-08-28T12:19:43.060Z,31.70
2022-08-28T12:25:02.724Z,32.00
2022-08-28T12:30:05.777Z,32.40
2022-08-28T12:35:23.584Z,32.70
2022-08-28T12:40:55.845Z,33.00
2022-08-28T12:46:04.025Z,33.30
2022-08-28T12:51:21.454Z,33.60
2022-08-28T12:56:26.137Z,33.80
2022-08-28T13:01:32.409Z,34.00
2022-08-28T13:06:38.541Z,34.10
2022-08-28T13:11:46.875Z,34.20
2022-08-28T13:16:49.208Z,34.20
2022-08-28T13:22:01.904Z,34.30
2022-08-28T13:27:17.915Z,34.50
2022-08-28T13:32:20.303Z,34.70
2022-08-28T13:37:41.677Z,34.70
2022-08-28T13:42:44.743Z,35.00
2022-08-28T13:47:46.894Z,35.40
2022-08-28T13:52:49.003Z,35.90
2022-08-28T13:57:51.503Z,36.30
2022-08-28T14:03:12.410Z,36.70
2022-08-28T14:08:14.688Z,37.10
2022-08-28T14:13:17.315Z,37.30
2022-08-28T14:18:20.231Z,37.70
2022-08-28T14:23:23.050Z,38.30
2022-08-28T14:28:25.199Z,38.80
2022-08-28T14:33:27.376Z,39.40
2022-08-28T14:38:30.102Z,40.00
2022-08-28T14:43:32.284Z,40.60
2022-08-28T14:48:34.648Z,40.70
2022-08-28T14:53:37.264Z,40.70
2022-08-28T14:58:39.496Z,40.90
2022-08-28T15:03:41.728Z,41.40
2022-08-28T15:08:44.143Z,41.80
2022-08-28T15:13:49.982Z,42.20
2022-08-28T15:18:54.964Z,42.40
2022-08-28T15:23:57.824Z,42.60
2022-08-28T15:29:03.669Z,42.70
2022-08-28T15:34:13.237Z,42.80
2022-08-28T15:39:34.900Z,42.40
2022-08-28T15:44:37.432Z,41.60
2022-08-28T15:49:48.563Z,40.50
2022-08-28T15:54:52.670Z,39.80
2022-08-28T15:59:54.894Z,39.70
2022-08-28T16:04:57.044Z,39.70
2022-08-28T16:10:00.231Z,39.40
2022-08-28T16:15:02.420Z,39.00
2022-08-28T16:20:06.514Z,39.10
2022-08-28T16:25:14.618Z,39.30
2022-08-28T16:30:17.492Z,39.00
2022-08-28T16:35:20.827Z,38.20
2022-08-28T16:40:24.471Z,37.30
2022-08-28T16:45:26.671Z,36.40
2022-08-28T16:50:32.328Z,35.70
2022-08-28T16:55:35.636Z,35.10
2022-08-28T17:00:44.263Z,34.40
2022-08-28T17:05:57.001Z,33.90
2022-08-28T17:10:59.321Z,33.40
2022-08-28T17:16:02.486Z,33.00
2022-08-28T17:21:24.141Z,32.60
2022-08-28T17:26:26.483Z,32.20
2022-08-28T17:31:28.752Z,31.90
2022-08-28T17:36:33.218Z,31.60
2022-08-28T17:41:36.415Z,31.30
2022-08-28T17:46:38.599Z,30.90
2022-08-28T17:51:43.677Z,30.60
2022-08-28T17:56:46.737Z,30.40
2022-08-28T18:01:49.820Z,30.00
2022-08-28T18:06:54.335Z,29.80
2022-08-28T18:11:56.948Z,29.50
2022-08-28T18:16:59.410Z,29.30
2022-08-28T18:22:01.663Z,29.00
2022-08-28T18:27:04.345Z,28.70
2022-08-28T18:32:07.931Z,28.50
2022-08-28T18:37:11.259Z,27.80
2022-08-28T18:42:13.488Z,27.90
2022-08-28T18:47:15.903Z,27.60
2022-08-28T18:52:18.666Z,27.40
2022-08-28T18:57:21.675Z,27.20
2022-08-28T19:02:27.743Z,26.90
2022-08-28T19:07:30.020Z,26.50
2022-08-28T19:12:33.281Z,26.40
2022-08-28T19:17:37.509Z,26.20
2022-08-28T19:22:39.769Z,25.90
2022-08-28T19:27:42.887Z,25.70
2022-08-28T19:32:46.639Z,25.50
2022-08-28T19:37:51.033Z,25.40
2022-08-28T19:42:53.170Z,25.00
2022-08-28T19:47:55.696Z,24.90
2022-08-28T19:52:57.931Z,24.50
2022-08-28T19:58:03.939Z,24.20
2022-08-28T20:03:06.382Z,24.00
2022-08-28T20:08:08.752Z,23.80
2022-08-28T20:13:11.713Z,23.50
2022-08-28T20:18:14.625Z,23.40
2022-08-28T20:23:18.404Z,23.30
2022-08-28T20:28:20.511Z,23.30
2022-08-28T20:33:22.754Z,23.10
2022-08-28T20:38:25.090Z,23.10
2022-08-28T20:43:27.247Z,22.90
2022-08-28T20:48:30.031Z,23.00
2022-08-28T20:53:37.709Z,22.70
2022-08-28T20:58:40.309Z,22.70
2022-08-28T21:03:42.467Z,22.60
2022-08-28T21:08:45.030Z,22.50
2022-08-28T21:13:47.177Z,22.20
2022-08-28T21:19:12.108Z,22.30
2022-08-28T21:24:13.726Z,22.10
2022-08-28T21:29:16.713Z,22.00
2022-08-28T21:34:21.813Z,22.00
2022-08-28T21:39:24.003Z,21.90
2022-08-28T21:44:26.232Z,21.80
2022-08-28T21:49:29.118Z,21.70
2022-08-28T21:54:31.697Z,21.70
2022-08-28T21:59:37.694Z,21.60
2022-08-28T22:04:40.375Z,21.40
2022-08-28T22:09:42.826Z,21.60
2022-08-28T22:14:45.043Z,21.60
2022-08-28T22:19:47.193Z,21.80
2022-08-28T22:24:49.328Z,21.50
2022-08-28T22:29:51.541Z,21.50
2022-08-28T22:34:55.186Z,21.30
2022-08-28T22:39:59.148Z,21.30
2022-08-28T22:45:01.807Z,21.10
2022-08-28T22:50:04.885Z,21.30
2022-08-28T22:55:12.515Z,21.20
2022-08-28T23:00:19.543Z,21.20
2022-08-28T23:05:23.074Z,20.90
2022-08-28T23:10:48.260Z,20.90
2022-08-28T23:15:49.364Z,20.80
2022-08-28T23:20:52.463Z,21.00
2022-08-28T23:25:54.666Z,21.00
2022-08-28T23:30:57.082Z,20.90
2022-08-28T23:35:59.281Z,20.90
2022-08-28T23:41:02.020Z,20.80
2022-08-28T23:46:05.354Z,20.60
2022-08-28T23:51:14.985Z,20.70
2022-08-28T23:56:17.861Z,20.60
